| time (UTC) | temp F | wind direction | speed MPH | gust MPH | rain 1hr in | rain 24hr in | rain mn in | humidity % | barometer mb |
| 20260504070211 | 46 | 17 | 0.0 | 0.0 | 0.00 | 0.00 | 0.00 | 89 | 1003.2 |
| 20260504060132 | 51 | 6 | 0.0 | 0.0 | 0.00 | 0.00 | 0.00 | 80 | 1003.7 |
| 20260504050600 | 51 | 357 | 2.0 | 2.0 | 0.00 | 0.00 | 0.00 | 83 | 1004.0 |
| 20260504045554 | 48 | 6 | 1.0 | 1.0 | 0.00 | 0.00 | 0.00 | 95 | 1003.7 |
| 20260504045049 | 47 | 6 | 0.0 | 0.0 | 0.00 | 0.00 | 0.00 | 97 | 1003.7 |
| 20260504044547 | 47 | 218 | 0.0 | 0.0 | 0.00 | 0.00 | 0.00 | 97 | 1003.6 |
| 20260504044043 | 47 | 218 | 0.0 | 0.0 | 0.00 | 0.00 | 0.00 | 97 | 1003.6 |
| 20260504043540 | 48 | 218 | 0.0 | 0.0 | 0.00 | 0.00 | 0.00 | 97 | 1003.6 |
| 20260504043038 | 48 | 218 | 0.0 | 0.0 | 0.00 | 0.00 | 0.00 | 97 | 1003.3 |
| 20260504042535 | 48 | 219 | 0.0 | 0.0 | 0.00 | 0.00 | 0.00 | 96 | 1003.6 |
| 20260504042032 | 48 | 202 | 1.0 | 1.0 | 0.00 | 0.00 | 0.00 | 97 | 1003.7 |
| 20260504041527 | 48 | 203 | 1.0 | 1.0 | 0.00 | 0.00 | 0.00 | 97 | 1003.7 |
| 20260504041024 | 48 | 203 | 0.0 | 0.0 | 0.00 | 0.00 | 0.00 | 97 | 1003.6 |
| 20260504040521 | 48 | 172 | 0.0 | 1.0 | 0.00 | 0.00 | 0.00 | 97 | 1004.1 |
| 20260504040018 | 48 | 204 | 0.0 | 1.0 | 0.00 | 0.00 | 0.00 | 97 | 1003.9 |
| 20260504035515 | 48 | 175 | 1.0 | 1.0 | 0.00 | 0.00 | 0.00 | 97 | 1003.9 |
| 20260504035011 | 48 | 182 | 0.0 | 1.0 | 0.00 | 0.00 | 0.00 | 97 | 1003.9 |
| 20260504034509 | 47 | 195 | 0.0 | 1.0 | 0.00 | 0.00 | 0.00 | 97 | 1004.2 |
| 20260504034006 | 47 | 198 | 1.0 | 1.0 | 0.00 | 0.00 | 0.00 | 96 | 1004.0 |
| 20260504033504 | 47 | 160 | 0.0 | 0.0 | 0.00 | 0.00 | 0.00 | 96 | 1004.2 |
| 20260504033001 | 47 | 214 | 1.0 | 1.0 | 0.00 | 0.00 | 0.00 | 96 | 1004.2 |
| 20260504032457 | 47 | 228 | 0.0 | 0.0 | 0.00 | 0.00 | 0.00 | 95 | 1004.2 |
| 20260504031954 | 47 | 180 | 2.0 | 2.0 | 0.00 | 0.00 | 0.00 | 96 | 1004.2 |
| 20260504031451 | 47 | 192 | 1.0 | 1.0 | 0.00 | 0.00 | 0.00 | 96 | 1004.4 |
| 20260504030947 | 47 | 195 | 1.0 | 1.0 | 0.00 | 0.00 | 0.00 | 96 | 1004.2 |
| 20260504030445 | 46 | 198 | 0.0 | 1.0 | 0.00 | 0.00 | 0.00 | 96 | 1004.1 |
| 20260504025940 | 46 | 193 | 1.0 | 1.0 | 0.00 | 0.00 | 0.00 | 96 | 1004.1 |
| 20260504025437 | 46 | 157 | 3.0 | 3.0 | 0.00 | 0.00 | 0.00 | 96 | 1004.2 |
| 20260504024935 | 46 | 196 | 1.0 | 1.0 | 0.00 | 0.00 | 0.00 | 96 | 1004.1 |
| 20260504024432 | 46 | 208 | 1.0 | 1.0 | 0.00 | 0.00 | 0.00 | 96 | 1004.3 |
| 20260504023929 | 46 | 204 | 1.0 | 1.0 | 0.00 | 0.00 | 0.00 | 96 | 1004.3 |
| 20260504023425 | 46 | 172 | 1.0 | 1.0 | 0.00 | 0.00 | 0.00 | 96 | 1004.2 |
| 20260504022921 | 45 | 215 | 1.0 | 2.0 | 0.00 | 0.00 | 0.00 | 96 | 1004.2 |
| 20260504022417 | 45 | 193 | 1.0 | 2.0 | 0.00 | 0.00 | 0.00 | 96 | 1004.4 |
| 20260504021914 | 45 | 215 | 1.0 | 1.0 | 0.00 | 0.00 | 0.00 | 96 | 1004.3 |
| 20260504021411 | 45 | 158 | 2.0 | 2.0 | 0.00 | 0.00 | 0.00 | 96 | 1004.2 |
| 20260504020909 | 45 | 211 | 1.0 | 1.0 | 0.00 | 0.00 | 0.00 | 95 | 1004.2 |
| 20260504020405 | 45 | 230 | 3.0 | 3.0 | 0.00 | 0.00 | 0.00 | 94 | 1004.2 |
| 20260504015901 | 46 | 195 | 0.0 | 1.0 | 0.00 | 0.00 | 0.00 | 94 | 1004.0 |
| 20260504015358 | 46 | 199 | 1.0 | 2.0 | 0.00 | 0.00 | 0.00 | 93 | 1004.2 |
| 20260504014853 | 46 | 219 | 2.0 | 3.0 | 0.00 | 0.00 | 0.00 | 93 | 1004.0 |
| 20260504014350 | 46 | 164 | 3.0 | 5.0 | 0.00 | 0.00 | 0.00 | 93 | 1004.2 |
| 20260504013847 | 45 | 199 | 3.0 | 6.0 | 0.00 | 0.00 | 0.00 | 94 | 1004.0 |
| 20260504013345 | 45 | 186 | 2.0 | 3.0 | 0.00 | 0.00 | 0.00 | 94 | 1004.0 |
| 20260504012841 | 45 | 200 | 2.0 | 2.0 | 0.00 | 0.00 | 0.00 | 94 | 1003.8 |
| 20260504012339 | 45 | 221 | 5.0 | 7.0 | 0.00 | 0.00 | 0.00 | 94 | 1003.9 |
| 20260504011837 | 45 | 216 | 1.0 | 1.0 | 0.00 | 0.00 | 0.00 | 93 | 1003.7 |
| 20260504011333 | 45 | 176 | 5.0 | 5.0 | 0.00 | 0.00 | 0.00 | 93 | 1003.6 |
| 20260504010829 | 45 | 218 | 1.0 | 1.0 | 0.00 | 0.00 | 0.00 | 93 | 1003.7 |
| 20260504010325 | 45 | 244 | 2.0 | 3.0 | 0.00 | 0.00 | 0.00 | 93 | 1003.8 |
| 20260504005822 | 45 | 225 | 3.0 | 3.0 | 0.00 | 0.00 | 0.00 | 92 | 1003.8 |
| 20260504005319 | 45 | 223 | 3.0 | 3.0 | 0.00 | 0.00 | 0.00 | 92 | 1003.6 |
| 20260504004816 | 45 | 204 | 5.0 | 6.0 | 0.00 | 0.00 | 0.00 | 92 | 1003.9 |
| 20260504004314 | 45 | 132 | 4.0 | 6.0 | 0.00 | 0.00 | 0.00 | 92 | 1003.8 |
| 20260504003810 | 45 | 194 | 5.0 | 8.0 | 0.00 | 0.00 | 0.00 | 91 | 1003.8 |
| 20260504003307 | 45 | 211 | 3.0 | 5.0 | 0.00 | 0.00 | 0.00 | 91 | 1003.6 |
| 20260504002803 | 45 | 176 | 6.0 | 8.0 | 0.00 | 0.00 | 0.00 | 91 | 1003.7 |
| 20260504002300 | 45 | 180 | 6.0 | 8.0 | 0.00 | 0.00 | 0.00 | 91 | 1003.7 |
| 20260504001758 | 46 | 181 | 5.0 | 7.0 | 0.00 | 0.00 | 0.00 | 91 | 1003.8 |
| 20260504001255 | 46 | 221 | 3.0 | 5.0 | 0.00 | 0.00 | 0.00 | 91 | 1003.9 |
| 20260504000752 | 46 | 181 | 3.0 | 5.0 | 0.00 | 0.00 | 0.00 | 90 | 1003.8 |
| 20260504000248 | 46 | 178 | 3.0 | 7.0 | 0.00 | 0.00 | 0.00 | 90 | 1003.9 |
| 20260503235747 | 46 | 215 | 4.0 | 5.0 | 0.00 | 0.00 | 0.00 | 90 | 1003.8 |
| 20260503235243 | 46 | 258 | 2.0 | 2.0 | 0.00 | 0.00 | 0.00 | 90 | 1003.8 |
| 20260503234741 | 46 | 190 | 7.0 | 9.0 | 0.00 | 0.00 | 0.00 | 90 | 1003.8 |
| 20260503234239 | 46 | 175 | 6.0 | 7.0 | 0.00 | 0.00 | 0.00 | 89 | 1003.7 |
| 20260503233736 | 46 | 225 | 7.0 | 11.0 | 0.00 | 0.00 | 0.00 | 89 | 1003.8 |
| 20260503233232 | 46 | 217 | 6.0 | 7.0 | 0.00 | 0.00 | 0.00 | 89 | 1003.6 |
| 20260503232729 | 46 | 209 | 5.0 | 7.0 | 0.00 | 0.00 | 0.00 | 89 | 1003.6 |
| 20260503232226 | 46 | 172 | 5.0 | 6.0 | 0.00 | 0.00 | 0.00 | 89 | 1003.8 |
| 20260503231724 | 46 | 203 | 5.0 | 7.0 | 0.00 | 0.00 | 0.00 | 89 | 1003.8 |
| 20260503231221 | 46 | 204 | 4.0 | 6.0 | 0.00 | 0.00 | 0.00 | 89 | 1003.8 |
| 20260503230717 | 46 | 195 | 6.0 | 7.0 | 0.00 | 0.00 | 0.00 | 89 | 1003.9 |
| 20260503230214 | 47 | 186 | 5.0 | 7.0 | 0.00 | 0.00 | 0.00 | 88 | 1004.1 |
| 20260503225711 | 47 | 190 | 4.0 | 6.0 | 0.00 | 0.00 | 0.00 | 87 | 1004.1 |
| 20260503225206 | 47 | 237 | 4.0 | 6.0 | 0.00 | 0.00 | 0.00 | 88 | 1004.2 |
| 20260503224704 | 47 | 207 | 5.0 | 6.0 | 0.00 | 0.00 | 0.00 | 87 | 1003.9 |
| 20260503224201 | 47 | 178 | 4.0 | 6.0 | 0.00 | 0.00 | 0.00 | 87 | 1004.1 |
| 20260503223659 | 47 | 194 | 5.0 | 7.0 | 0.00 | 0.00 | 0.00 | 87 | 1004.0 |
| 20260503223155 | 47 | 181 | 5.0 | 9.0 | 0.00 | 0.00 | 0.00 | 86 | 1004.0 |
| 20260503222652 | 48 | 192 | 5.0 | 6.0 | 0.00 | 0.00 | 0.00 | 85 | 1004.2 |
| 20260503222150 | 47 | 236 | 5.0 | 7.0 | 0.00 | 0.00 | 0.00 | 86 | 1004.4 |
| 20260503221648 | 48 | 172 | 3.0 | 6.0 | 0.00 | 0.00 | 0.00 | 85 | 1004.6 |
| 20260503221145 | 48 | 197 | 4.0 | 6.0 | 0.00 | 0.00 | 0.00 | 86 | 1004.6 |
| 20260503220642 | 48 | 192 | 5.0 | 7.0 | 0.00 | 0.00 | 0.00 | 85 | 1004.4 |
| 20260503220138 | 47 | 195 | 5.0 | 6.0 | 0.00 | 0.00 | 0.00 | 87 | 1004.5 |
| 20260503215636 | 48 | 158 | 6.0 | 11.0 | 0.00 | 0.00 | 0.00 | 85 | 1004.5 |
| 20260503215132 | 48 | 208 | 3.0 | 5.0 | 0.00 | 0.00 | 0.00 | 85 | 1004.6 |
| 20260503214631 | 48 | 176 | 8.0 | 13.0 | 0.00 | 0.00 | 0.00 | 85 | 1004.4 |
| 20260503214126 | 48 | 193 | 6.0 | 7.0 | 0.00 | 0.00 | 0.00 | 85 | 1004.5 |
| 20260503213626 | 48 | 216 | 3.0 | 3.0 | 0.00 | 0.00 | 0.00 | 85 | 1004.6 |
| 20260503213122 | 48 | 197 | 4.0 | 6.0 | 0.00 | 0.00 | 0.00 | 85 | 1004.6 |
| 20260503212620 | 48 | 190 | 6.0 | 11.0 | 0.00 | 0.00 | 0.00 | 84 | 1004.6 |
| 20260503212117 | 48 | 181 | 5.0 | 7.0 | 0.00 | 0.00 | 0.00 | 84 | 1004.7 |
| 20260503211615 | 49 | 149 | 7.0 | 8.0 | 0.00 | 0.00 | 0.00 | 84 | 1004.9 |
| 20260503211110 | 48 | 227 | 3.0 | 3.0 | 0.00 | 0.00 | 0.00 | 85 | 1004.8 |
| 20260503210607 | 48 | 165 | 8.0 | 10.0 | 0.00 | 0.00 | 0.00 | 83 | 1005.0 |
| 20260503205559 | 49 | 222 | 6.0 | 11.0 | 0.00 | 0.00 | 0.00 | 83 | 1004.9 |
| 20260503205055 | 49 | 216 | 4.0 | 5.0 | 0.00 | 0.00 | 0.00 | 82 | 1004.9 |
| 20260503204552 | 49 | 224 | 5.0 | 8.0 | 0.00 | 0.00 | 0.00 | 83 | 1005.0 |
| 20260503204049 | 49 | 203 | 5.0 | 7.0 | 0.00 | 0.00 | 0.00 | 83 | 1005.1 |
| 20260503203546 | 49 | 200 | 4.0 | 7.0 | 0.00 | 0.00 | 0.00 | 83 | 1005.1 |
| 20260503203044 | 50 | 201 | 4.0 | 6.0 | 0.00 | 0.00 | 0.00 | 82 | 1005.3 |
| 20260503202542 | 49 | 180 | 7.0 | 10.0 | 0.00 | 0.00 | 0.00 | 81 | 1005.4 |
| 20260503202039 | 50 | 181 | 5.0 | 7.0 | 0.00 | 0.00 | 0.00 | 81 | 1005.5 |
| 20260503201537 | 50 | 227 | 6.0 | 8.0 | 0.00 | 0.00 | 0.00 | 79 | 1005.7 |
| 20260503201034 | 50 | 171 | 7.0 | 8.0 | 0.00 | 0.00 | 0.00 | 79 | 1005.7 |
| 20260503200530 | 50 | 170 | 6.0 | 8.0 | 0.00 | 0.00 | 0.00 | 80 | 1005.7 |
| 20260503200027 | 50 | 212 | 7.0 | 9.0 | 0.00 | 0.00 | 0.00 | 79 | 1005.8 |
| 20260503195524 | 51 | 232 | 7.0 | 9.0 | 0.00 | 0.00 | 0.00 | 79 | 1005.8 |
| 20260503195021 | 51 | 183 | 5.0 | 6.0 | 0.00 | 0.00 | 0.00 | 79 | 1005.9 |
| 20260503194518 | 54 | 166 | 4.0 | 5.0 | 0.00 | 0.00 | 0.00 | 73 | 1005.9 |
| 20260503194018 | 59 | 229 | 7.0 | 9.0 | 0.00 | 0.00 | 0.00 | 71 | 1006.2 |
| 20260503193515 | 64 | 172 | 4.0 | 7.0 | 0.00 | 0.00 | 0.00 | 57 | 1006.0 |
| 20260503193010 | 65 | 182 | 5.0 | 6.0 | 0.00 | 0.00 | 0.00 | 61 | 1006.1 |
| 20260503192506 | 65 | 197 | 4.0 | 5.0 | 0.00 | 0.00 | 0.00 | 55 | 1006.1 |
| 20260503192002 | 65 | 213 | 4.0 | 5.0 | 0.00 | 0.00 | 0.00 | 55 | 1006.1 |
| 20260503191459 | 64 | 243 | 3.0 | 3.0 | 0.00 | 0.00 | 0.00 | 56 | 1006.3 |
| 20260503190956 | 65 | 165 | 3.0 | 7.0 | 0.00 | 0.00 | 0.00 | 56 | 1006.2 |
| 20260503190453 | 66 | 239 | 5.0 | 7.0 | 0.00 | 0.00 | 0.00 | 53 | 1006.1 |
| 20260503185950 | 65 | 243 | 5.0 | 6.0 | 0.00 | 0.00 | 0.00 | 55 | 1006.5 |
| 20260503185446 | 66 | 186 | 5.0 | 8.0 | 0.00 | 0.00 | 0.00 | 54 | 1006.6 |
| 20260503184946 | 65 | 240 | 3.0 | 3.0 | 0.00 | 0.00 | 0.00 | 54 | 1006.6 |
| 20260503184443 | 65 | 218 | 5.0 | 7.0 | 0.00 | 0.00 | 0.00 | 54 | 1006.4 |
| 20260503183939 | 65 | 234 | 5.0 | 7.0 | 0.00 | 0.00 | 0.00 | 54 | 1006.5 |
| 20260503183436 | 65 | 235 | 4.0 | 6.0 | 0.00 | 0.00 | 0.00 | 56 | 1006.8 |
| 20260503182933 | 64 | 216 | 6.0 | 8.0 | 0.00 | 0.00 | 0.00 | 57 | 1006.9 |
| 20260503182432 | 64 | 204 | 4.0 | 7.0 | 0.00 | 0.00 | 0.00 | 56 | 1007.0 |
| 20260503181929 | 64 | 220 | 3.0 | 5.0 | 0.00 | 0.00 | 0.00 | 57 | 1007.1 |
| 20260503181426 | 64 | 228 | 6.0 | 8.0 | 0.00 | 0.00 | 0.00 | 56 | 1007.0 |
| 20260503180921 | 64 | 240 | 3.0 | 7.0 | 0.00 | 0.00 | 0.00 | 56 | 1007.0 |
| 20260503180420 | 64 | 276 | 7.0 | 9.0 | 0.00 | 0.00 | 0.00 | 56 | 1007.1 |
| 20260503175916 | 64 | 305 | 3.0 | 3.0 | 0.00 | 0.00 | 0.00 | 56 | 1007.2 |
| 20260503175415 | 64 | 170 | 3.0 | 5.0 | 0.00 | 0.00 | 0.00 | 56 | 1007.3 |
| 20260503174910 | 64 | 272 | 4.0 | 5.0 | 0.00 | 0.00 | 0.00 | 55 | 1007.5 |
| 20260503174408 | 63 | 228 | 3.0 | 5.0 | 0.00 | 0.00 | 0.00 | 55 | 1007.3 |
| 20260503173903 | 63 | 223 | 9.0 | 11.0 | 0.00 | 0.00 | 0.00 | 56 | 1007.3 |
| 20260503173359 | 63 | 222 | 4.0 | 8.0 | 0.00 | 0.00 | 0.00 | 56 | 1007.6 |
| 20260503172856 | 63 | 234 | 7.0 | 9.0 | 0.00 | 0.00 | 0.00 | 55 | 1007.5 |
| 20260503172354 | 63 | 187 | 3.0 | 3.0 | 0.00 | 0.00 | 0.00 | 57 | 1007.6 |
| 20260503171849 | 64 | 239 | 4.0 | 6.0 | 0.00 | 0.00 | 0.00 | 55 | 1007.7 |
| 20260503171346 | 61 | 194 | 2.0 | 2.0 | 0.00 | 0.00 | 0.00 | 58 | 1007.7 |
| 20260503170844 | 62 | 231 | 3.0 | 6.0 | 0.00 | 0.00 | 0.00 | 57 | 1007.9 |
| 20260503170340 | 62 | 232 | 3.0 | 5.0 | 0.00 | 0.00 | 0.00 | 57 | 1007.8 |
| 20260503150733 | 57 | 239 | 3.0 | 3.0 | 0.00 | 0.00 | 0.00 | 61 | 1009.0 |
| 20260503150229 | 57 | 206 | 3.0 | 3.0 | 0.00 | 0.00 | 0.00 | 61 | 1009.1 |
| 20260503140153 | 53 | 188 | 1.0 | 1.0 | 0.00 | 0.00 | 0.00 | 69 | 1009.7 |
| 20260503131123 | 50 | 220 | 2.0 | 2.0 | 0.00 | 0.00 | 0.00 | 73 | 1009.4 |
| 20260503130620 | 50 | 142 | 1.0 | 1.0 | 0.00 | 0.00 | 0.00 | 73 | 1009.6 |
| 20260503130118 | 50 | 238 | 1.0 | 1.0 | 0.00 | 0.00 | 0.00 | 73 | 1009.7 |
| 20260503110510 | 51 | 297 | 4.0 | 5.0 | 0.00 | 0.00 | 0.00 | 62 | 1010.6 |
| 20260503090402 | 46 | 183 | 2.0 | 2.0 | 0.00 | 0.00 | 0.00 | 83 | 1011.0 |
| 20260503081329 | 44 | 160 | 2.0 | 2.0 | 0.00 | 0.00 | 0.00 | 92 | 1011.5 |
| 20260503080826 | 43 | 172 | 1.0 | 1.0 | 0.00 | 0.00 | 0.00 | 92 | 1011.4 |
| 20260503080323 | 43 | 48 | 0.0 | 0.0 | 0.00 | 0.00 | 0.00 | 92 | 1011.6 |
| 20260503072759 | 43 | 193 | 0.0 | 0.0 | 0.00 | 0.00 | 0.00 | 90 | 1011.7 |
| 20260503072256 | 43 | 341 | 0.0 | 0.0 | 0.00 | 0.00 | 0.00 | 89 | 1012.1 |